Wednesday, September 03, 2014
07:10 UTC
  |  Log In   |  Register Free
Airport Search:

De Kalb County Airport
(KGWB)

De Kalb County Airport Diagram
No Airport Diagram Available

FAA data valid effective July 24, 2014 until September 18, 2014 (unless otherwise noted).

 
 
 
 
 
 
 
 
 
 
 
 
 
 

Current Aviation Weather for De Kalb County Airport (KGWB)

The most recent METAR observation for KGWB was updated at: 0555 UTC
METAR Summary (Translated METAR)
KGWB
030555Z AUTO 00000KT 7SM CLR 16/15 A3001 RMK AO2
KFWA
(20.6 nm SW from KGWB)
030554Z 25004KT 8SM CLR 17/17 A3000 RMK AO2 SLP156 T01720167 10222 20172 51010
TAF Summary (Translated TAF)
KFWA
(20.6 nm SW from KGWB)
030529Z 0306/0406 24004KT P6SM SCT250 FM030900 VRB02KT 4SM BR SKC TEMPO 0310/0313 1SM BR FM031400 22006KT P6SM SKC FM040000 18004KT P6SM SCT250
  Airport Weather Conditions for KGWB

 Current Weather at GWB
61° F
Fair
North winds at 0.0 mph
GWB NOAA Radar

Pressure: 30.01 in
Humidity: 94%
Wind: Calm
Dew Point: 59.0°F
Visibility: 7.00 mi


Airport Weather Forecast for KGWB

Translated METAR and TAF for KGWB
Translated METAR for KGWB (0703 UTC 03 September 2014)
found at http://aviationweather.gov/adds/metars/
 
METAR text: KGWB 030655Z AUTO 00000KT 4SM BR CLR 16/15 A3000 RMK AO2
Conditions at: KGWB (AUBURN DEKALB C , IN, US) observed 0655 UTC 03 September 2014
Temperature: 16.0°C (61°F)
Dewpoint: 15.0°C (59°F) [RH = 94%]
Pressure (altimeter): 30.00 inches Hg (1016.0 mb)
Winds: calm
Visibility: 4 miles (6 km)
Ceiling: at least 12,000 feet AGL
Clouds: sky clear below 12,000 feet AGL
Weather: BR  (mist)
Translated TAF for KGWB

There is no translated TAF available for this airport

Find All Airport Services Find A Hotel Find A Rental Car Find A Golf Course Find A Restaurant $100 Hamburger



FBO's on the Field
FBO Company Facility Photos Services Transportation Aviation Fuel Prices: Prices include tax
Catering Weather Repair Courtesy Rental Type 100LL JetA JetA+ MOGAS 8087
 
Century Aviation

This FBO has not yet been rated
FS:Shell
Last Updated: Aug-20
Login to update fuel prices
SS:
Contact Century AviationMore FBO Information
 
Add another FBO Facility Photos Catering Weather Repair Courtesy Rental Type 100LL JetA JetA+ MOGAS 8087
Services Transportation Aviation Fuel Prices: Prices include tax


GlobalAir.com Airport Resource Center model-print
model-print
model-print
model-print